createdAt,value
2019-01-23T00:01:27.208Z,40.15
2019-01-23T00:03:56.520Z,33.42
2019-01-23T00:06:25.450Z,46.83
2019-01-23T00:08:54.810Z,38.13
2019-01-23T00:11:23.729Z,39.53
2019-01-23T00:13:52.643Z,36.50
2019-01-23T00:16:26.874Z,37.65
2019-01-23T00:18:56.193Z,38.15
2019-01-23T00:21:25.125Z,35.15
2019-01-23T00:23:54.064Z,37.15
2019-01-23T00:26:23.000Z,43.30
2019-01-23T00:28:51.915Z,37.42
2019-01-23T00:31:24.627Z,40.50
2019-01-23T00:33:53.779Z,36.50
2019-01-23T00:36:22.656Z,38.95
2019-01-23T00:38:51.626Z,39.88
2019-01-23T00:41:21.084Z,38.13
2019-01-23T00:43:50.021Z,35.28
2019-01-23T00:46:24.187Z,38.95
2019-01-23T00:48:53.144Z,37.65
2019-01-23T00:51:22.137Z,38.98
2019-01-23T00:53:51.660Z,39.08
2019-01-23T00:56:20.672Z,41.50
2019-01-23T00:58:49.590Z,39.33
2019-01-23T01:01:18.556Z,36.23
2019-01-23T01:03:47.470Z,38.38
2019-01-23T01:06:16.875Z,42.40
2019-01-23T01:08:45.821Z,43.20
2019-01-23T01:11:14.756Z,38.25
2019-01-23T01:13:43.717Z,40.38
2019-01-23T01:16:12.755Z,39.30
2019-01-23T01:18:41.655Z,39.92
2019-01-23T01:21:10.573Z,42.25
2019-01-23T01:23:45.171Z,41.92
2019-01-23T01:26:14.050Z,44.33
2019-01-23T01:28:43.450Z,47.45
2019-01-23T01:31:12.742Z,37.40
2019-01-23T01:33:41.684Z,41.55
2019-01-23T01:36:10.627Z,36.53
2019-01-23T01:38:40.004Z,44.60
2019-01-23T01:41:08.923Z,44.77
2019-01-23T01:43:38.226Z,39.83
2019-01-23T01:46:07.527Z,39.30
2019-01-23T01:48:36.427Z,43.28
2019-01-23T01:51:05.724Z,40.88
2019-01-23T01:53:35.021Z,36.58
2019-01-23T01:56:04.048Z,43.73
2019-01-23T01:58:33.309Z,41.15
2019-01-23T02:01:02.270Z,42.85
2019-01-23T02:03:31.307Z,39.20
2019-01-23T02:06:00.206Z,43.38
2019-01-23T02:08:29.153Z,42.85
2019-01-23T02:10:58.082Z,49.48
2019-01-23T02:13:27.014Z,42.10
2019-01-23T02:15:55.930Z,44.33
2019-01-23T02:18:24.829Z,41.80
2019-01-23T02:20:53.778Z,42.83
2019-01-23T02:23:22.747Z,46.68
2019-01-23T02:25:51.712Z,44.85
2019-01-23T02:28:20.690Z,43.38
2019-01-23T02:30:49.698Z,42.73
2019-01-23T02:33:19.004Z,47.23
2019-01-23T02:35:48.031Z,42.33
2019-01-23T02:38:17.376Z,43.25
2019-01-23T02:40:46.600Z,40.23
2019-01-23T02:43:15.532Z,42.27
2019-01-23T02:45:44.460Z,44.42
2019-01-23T02:48:13.439Z,46.30
2019-01-23T02:50:42.378Z,45.52
2019-01-23T02:53:11.338Z,43.17
2019-01-23T02:55:40.255Z,40.08
2019-01-23T02:58:09.180Z,42.80
2019-01-23T03:00:38.849Z,46.08
2019-01-23T03:03:07.891Z,41.92
2019-01-23T03:05:36.853Z,39.65
2019-01-23T03:08:05.854Z,46.80
2019-01-23T03:10:34.769Z,43.98
2019-01-23T03:13:03.670Z,45.00
2019-01-23T03:15:33.433Z,44.20
2019-01-23T03:18:26.377Z,46.77
2019-01-23T03:20:55.699Z,46.35
2019-01-23T03:23:24.979Z,47.15
2019-01-23T03:25:53.933Z,49.27
2019-01-23T03:28:23.178Z,50.60
2019-01-23T03:30:52.550Z,54.30
2019-01-23T03:33:21.775Z,51.37
2019-01-23T03:35:50.810Z,48.45
2019-01-23T03:38:31.047Z,62.62
2019-01-23T03:40:59.973Z,47.80
2019-01-23T03:43:29.207Z,44.20
2019-01-23T03:46:05.718Z,51.83
2019-01-23T03:48:34.971Z,47.27
2019-01-23T03:51:03.895Z,48.48
2019-01-23T03:53:45.900Z,45.33
2019-01-23T03:56:33.829Z,53.55
2019-01-23T03:59:02.791Z,48.05
2019-01-23T04:01:31.994Z,44.95
2019-01-23T04:04:00.898Z,46.92
2019-01-23T04:06:29.864Z,50.92
2019-01-23T04:08:58.789Z,49.13
2019-01-23T04:11:27.722Z,49.90
2019-01-23T04:13:56.603Z,54.15
2019-01-23T04:16:25.563Z,51.05
2019-01-23T04:18:54.890Z,55.88
2019-01-23T04:21:33.066Z,44.13
2019-01-23T04:24:02.011Z,52.25
2019-01-23T04:26:30.936Z,49.05
2019-01-23T04:29:18.876Z,51.60
2019-01-23T04:31:47.821Z,50.12
2019-01-23T04:34:17.167Z,53.75
2019-01-23T04:36:46.131Z,52.90
2019-01-23T04:39:15.461Z,45.05
2019-01-23T04:41:44.753Z,50.78
2019-01-23T04:44:13.671Z,52.80
2019-01-23T04:46:42.596Z,57.00
2019-01-23T04:49:11.922Z,52.98
2019-01-23T04:51:54.618Z,52.55
2019-01-23T04:54:23.567Z,54.30
2019-01-23T04:56:53.145Z,53.00
2019-01-23T04:59:46.949Z,47.50
2019-01-23T05:02:16.125Z,52.60
2019-01-23T05:04:45.010Z,52.45
2019-01-23T05:07:13.977Z,51.50
2019-01-23T05:09:42.895Z,47.78
2019-01-23T05:12:11.850Z,60.55
2019-01-23T05:14:40.787Z,59.30
2019-01-23T05:17:09.711Z,53.63
2019-01-23T05:19:38.656Z,54.93
2019-01-23T05:22:08.132Z,56.15
2019-01-23T05:24:37.461Z,49.27
2019-01-23T05:27:06.430Z,54.10
2019-01-23T05:29:35.838Z,52.65
2019-01-23T05:32:04.821Z,57.33
2019-01-23T05:34:33.713Z,51.53
2019-01-23T05:37:02.687Z,49.23
2019-01-23T05:39:31.604Z,48.90
2019-01-23T05:42:01.265Z,53.35
2019-01-23T05:44:44.180Z,52.95
2019-01-23T05:47:28.874Z,53.40
2019-01-23T05:49:58.865Z,50.38
2019-01-23T05:52:33.905Z,51.37
2019-01-23T05:55:12.668Z,49.53
2019-01-23T05:57:42.228Z,49.35
2019-01-23T06:00:18.065Z,48.55
2019-01-23T06:02:47.008Z,56.08
2019-01-23T06:05:16.124Z,55.48
2019-01-23T06:07:45.091Z,55.95
2019-01-23T06:10:14.176Z,57.08
2019-01-23T06:12:43.126Z,55.03
2019-01-23T06:15:12.517Z,53.78
2019-01-23T06:17:41.711Z,56.73
2019-01-23T06:20:12.792Z,50.95
2019-01-23T06:22:41.869Z,54.77
2019-01-23T06:25:10.935Z,56.73
2019-01-23T06:27:39.931Z,52.03
2019-01-23T06:30:10.901Z,61.53
2019-01-23T06:32:39.863Z,54.58
2019-01-23T06:35:08.850Z,54.08
2019-01-23T06:37:38.158Z,52.10
2019-01-23T06:40:07.611Z,50.00
2019-01-23T06:42:36.516Z,58.75
2019-01-23T06:45:05.792Z,52.48
2019-01-23T06:47:47.472Z,62.60
2019-01-23T06:50:17.728Z,66.33
2019-01-23T06:52:46.976Z,58.10
2019-01-23T06:55:15.948Z,57.05
2019-01-23T06:57:44.882Z,52.70
2019-01-23T07:00:25.077Z,63.68
2019-01-23T07:02:54.131Z,62.13
2019-01-23T07:05:23.384Z,52.33
2019-01-23T07:07:52.713Z,54.83
2019-01-23T07:10:48.662Z,59.38
2019-01-23T07:13:18.109Z,58.40
2019-01-23T07:15:47.433Z,69.03
2019-01-23T07:18:16.359Z,60.95
2019-01-23T07:20:45.334Z,58.45
2019-01-23T07:26:38.389Z,60.55
2019-01-23T07:29:07.309Z,65.15
2019-01-23T07:31:36.406Z,53.55
2019-01-23T07:34:05.429Z,63.55
2019-01-23T07:36:34.900Z,74.75
2019-01-23T07:39:19.165Z,58.05
2019-01-23T07:41:57.546Z,58.60
2019-01-23T07:44:26.445Z,55.70
2019-01-23T07:46:59.175Z,55.70
2019-01-23T07:49:28.164Z,55.17
2019-01-23T07:51:57.121Z,52.03
2019-01-23T07:54:26.194Z,52.50
2019-01-23T07:56:55.490Z,55.60
2019-01-23T07:59:24.411Z,58.23
2019-01-23T08:01:59.702Z,66.42
2019-01-23T08:04:28.600Z,55.03
2019-01-23T08:06:57.619Z,57.27
2019-01-23T08:09:26.547Z,51.88
2019-01-23T08:11:55.866Z,54.23
2019-01-23T08:14:25.185Z,55.48
2019-01-23T08:23:27.565Z,66.57
2019-01-23T08:29:06.593Z,61.60
2019-01-23T08:31:36.095Z,60.95
2019-01-23T08:34:05.392Z,55.48
2019-01-23T08:36:50.097Z,60.60
2019-01-23T08:39:34.213Z,57.13
2019-01-23T08:42:03.519Z,53.70
2019-01-23T08:44:32.470Z,52.88
2019-01-23T08:47:01.434Z,57.60
2019-01-23T08:49:30.369Z,53.75
2019-01-23T08:51:59.308Z,53.13
2019-01-23T08:54:28.968Z,56.95
2019-01-23T08:56:57.898Z,53.05
2019-01-23T08:59:26.831Z,54.83
2019-01-23T09:01:55.744Z,58.48
2019-01-23T09:04:25.087Z,57.83
2019-01-23T09:06:56.063Z,64.37
2019-01-23T09:09:25.004Z,51.88
2019-01-23T09:11:53.913Z,53.63
2019-01-23T09:14:22.841Z,51.80
2019-01-23T09:16:51.765Z,52.23
2019-01-23T09:19:20.701Z,52.20
2019-01-23T09:21:49.647Z,57.43
2019-01-23T09:24:18.580Z,53.42
2019-01-23T09:26:47.783Z,50.85
2019-01-23T09:29:16.719Z,50.88
2019-01-23T09:31:53.188Z,49.30
2019-01-23T09:34:41.172Z,54.70
2019-01-23T09:37:14.224Z,41.10
2019-01-23T09:40:08.240Z,50.98
2019-01-23T09:43:00.612Z,46.55
2019-01-23T09:45:51.670Z,47.43
2019-01-23T09:48:42.448Z,46.17
2019-01-23T09:51:27.017Z,41.88
2019-01-23T09:54:00.067Z,47.73
2019-01-23T09:56:31.964Z,45.85
2019-01-23T09:59:02.737Z,55.92
2019-01-23T10:01:32.688Z,44.77
2019-01-23T10:04:01.613Z,54.27
2019-01-23T10:06:52.557Z,45.90
2019-01-23T10:09:21.546Z,44.05
2019-01-23T10:11:50.938Z,45.33
2019-01-23T10:14:23.273Z,43.47
2019-01-23T10:16:52.269Z,46.08
2019-01-23T10:19:21.197Z,44.58
2019-01-23T10:21:50.136Z,46.95
2019-01-23T10:24:19.064Z,47.50
2019-01-23T10:27:07.001Z,45.87
2019-01-23T10:30:03.704Z,46.80
2019-01-23T10:32:32.686Z,50.97
2019-01-23T10:35:01.936Z,46.83
2019-01-23T10:37:31.241Z,48.52
2019-01-23T10:40:00.186Z,44.25
2019-01-23T10:42:29.442Z,44.65
2019-01-23T10:44:58.380Z,51.50
2019-01-23T10:47:27.474Z,51.63
2019-01-23T10:49:56.406Z,48.63
2019-01-23T10:53:10.191Z,48.40
2019-01-23T10:55:39.461Z,42.00
2019-01-23T10:58:08.779Z,44.57
2019-01-23T11:00:37.881Z,48.83
2019-01-23T11:03:10.090Z,47.20
2019-01-23T11:05:40.321Z,47.30
2019-01-23T11:08:09.262Z,50.43
2019-01-23T11:10:38.190Z,52.83
2019-01-23T11:13:08.588Z,53.17
2019-01-23T11:15:37.507Z,53.10
2019-01-23T11:18:22.523Z,50.07
2019-01-23T11:20:51.492Z,44.80
2019-01-23T11:23:20.363Z,40.13
2019-01-23T11:25:49.398Z,43.77
2019-01-23T11:28:18.655Z,45.20
2019-01-23T11:30:48.030Z,47.70
2019-01-23T11:33:29.399Z,49.27
2019-01-23T11:35:58.642Z,44.40
2019-01-23T11:38:27.534Z,61.63
2019-01-23T11:40:56.802Z,48.53
2019-01-23T11:43:25.693Z,52.60
2019-01-23T11:45:54.611Z,54.37
2019-01-23T11:48:23.502Z,50.40
2019-01-23T11:50:52.448Z,52.63
2019-01-23T11:53:21.416Z,54.63
2019-01-23T11:55:50.760Z,51.00
2019-01-23T11:58:20.072Z,58.63
2019-01-23T12:00:48.955Z,51.80
2019-01-23T12:03:21.059Z,53.40
2019-01-23T12:05:50.655Z,54.63
2019-01-23T12:08:19.559Z,47.07
2019-01-23T12:10:48.600Z,51.80
2019-01-23T12:13:17.520Z,48.03
2019-01-23T12:15:54.631Z,51.03
2019-01-23T12:18:23.521Z,58.13
2019-01-23T12:20:52.416Z,48.33
2019-01-23T12:23:21.352Z,58.53
2019-01-23T12:25:51.056Z,54.60
2019-01-23T12:28:20.405Z,55.83
2019-01-23T12:30:49.387Z,55.10
2019-01-23T12:33:18.284Z,53.00
2019-01-23T12:35:47.209Z,57.27
2019-01-23T12:38:16.107Z,56.50
2019-01-23T12:40:45.046Z,53.27
2019-01-23T12:43:18.443Z,57.93
2019-01-23T12:45:47.723Z,49.77
2019-01-23T12:48:17.059Z,61.60
2019-01-23T12:50:46.112Z,50.50
2019-01-23T12:53:15.415Z,50.10
2019-01-23T12:56:35.328Z,58.80
2019-01-23T12:59:05.331Z,54.03
2019-01-23T13:01:34.248Z,58.53
2019-01-23T13:04:27.226Z,55.13
2019-01-23T13:06:56.472Z,51.37
2019-01-23T13:09:25.419Z,52.35
2019-01-23T13:11:54.328Z,54.60
2019-01-23T13:14:23.247Z,49.80
2019-01-23T13:16:53.218Z,52.80
2019-01-23T13:19:25.822Z,57.20
2019-01-23T13:21:56.172Z,55.83
2019-01-23T13:24:25.107Z,48.70
2019-01-23T13:33:02.635Z,51.40
2019-01-23T13:35:32.933Z,56.17
2019-01-23T13:38:24.192Z,50.90
2019-01-23T13:40:53.096Z,46.63
2019-01-23T13:43:22.426Z,50.43
2019-01-23T13:45:51.366Z,51.47
2019-01-23T13:48:20.286Z,50.50
2019-01-23T13:50:49.242Z,58.07
2019-01-23T13:53:18.131Z,51.90
2019-01-23T13:55:47.005Z,53.37
2019-01-23T13:58:15.926Z,48.33
2019-01-23T14:00:44.942Z,45.47
2019-01-23T14:03:14.500Z,52.87
2019-01-23T14:05:44.839Z,53.93
2019-01-23T14:08:13.744Z,47.60
2019-01-23T14:10:42.723Z,49.83
2019-01-23T14:13:11.562Z,52.83
2019-01-23T14:15:40.680Z,51.20
2019-01-23T14:18:09.709Z,49.63
2019-01-23T14:20:38.729Z,56.80
2019-01-23T14:23:22.125Z,52.13
2019-01-23T14:26:01.288Z,55.53
2019-01-23T14:28:30.264Z,45.87
2019-01-23T14:30:59.150Z,52.60
2019-01-23T14:33:28.019Z,47.77
2019-01-23T14:35:58.285Z,48.80
2019-01-23T14:38:27.261Z,52.43
2019-01-23T14:40:56.207Z,45.37
2019-01-23T14:43:25.119Z,50.10
2019-01-23T14:45:53.993Z,50.07
2019-01-23T14:48:22.977Z,49.27
2019-01-23T14:51:07.737Z,52.23
2019-01-23T14:53:37.008Z,48.33
2019-01-23T14:56:05.948Z,45.33
2019-01-23T14:58:34.820Z,47.10
2019-01-23T15:01:03.782Z,46.93
2019-01-23T15:03:32.716Z,50.17
2019-01-23T15:06:07.916Z,54.80
2019-01-23T15:08:37.227Z,45.27
2019-01-23T15:11:06.132Z,50.67
2019-01-23T15:13:35.123Z,46.77
2019-01-23T15:16:03.976Z,44.13
2019-01-23T15:18:33.021Z,42.13
2019-01-23T15:21:02.331Z,42.20
2019-01-23T15:23:31.246Z,40.23
2019-01-23T15:26:00.522Z,38.87
2019-01-23T15:28:29.431Z,43.93
2019-01-23T15:30:58.872Z,40.38
2019-01-23T15:33:27.784Z,41.00
2019-01-23T15:35:56.744Z,38.27
2019-01-23T15:38:26.131Z,38.47
2019-01-23T15:40:55.016Z,44.67
2019-01-23T15:43:24.664Z,43.00
2019-01-23T15:45:53.570Z,39.27
2019-01-23T15:48:22.473Z,42.27
2019-01-23T15:50:51.734Z,44.70
2019-01-23T15:53:21.449Z,42.30
2019-01-23T15:56:03.739Z,42.37
2019-01-23T15:58:48.001Z,43.02
2019-01-23T16:01:29.286Z,38.10
2019-01-23T16:04:08.595Z,38.63
2019-01-23T16:06:46.480Z,41.97
2019-01-23T16:09:15.395Z,42.87
2019-01-23T16:11:44.714Z,46.80
2019-01-23T16:14:14.003Z,45.77
2019-01-23T16:16:42.925Z,47.37
2019-01-23T16:19:11.906Z,46.80
2019-01-23T16:21:45.759Z,47.53
2019-01-23T16:24:12.442Z,49.47
2019-01-23T16:26:41.350Z,44.30
2019-01-23T16:29:27.955Z,50.03
2019-01-23T16:32:10.530Z,44.93
2019-01-23T16:34:39.798Z,45.57
2019-01-23T16:37:08.725Z,52.70
2019-01-23T16:39:37.939Z,58.30
2019-01-23T16:42:06.994Z,62.50
2019-01-23T16:44:36.328Z,64.23
2019-01-23T16:47:20.783Z,62.60
2019-01-23T16:49:49.728Z,61.10
2019-01-23T16:52:18.985Z,58.77
2019-01-23T16:54:49.417Z,58.70
2019-01-23T16:57:18.713Z,64.53
2019-01-23T16:59:47.626Z,57.37
2019-01-23T17:02:16.498Z,63.75
2019-01-23T17:04:45.807Z,67.25
2019-01-23T17:07:34.448Z,63.78
2019-01-23T17:10:03.364Z,61.00
2019-01-23T17:12:38.441Z,68.30
2019-01-23T17:15:22.920Z,67.58
2019-01-23T17:18:04.288Z,65.90
2019-01-23T17:20:43.451Z,63.75
2019-01-23T17:23:12.422Z,64.45
2019-01-23T17:25:41.843Z,62.35
2019-01-23T17:28:11.320Z,61.70
2019-01-23T17:30:40.633Z,68.62
2019-01-23T17:33:33.833Z,60.58
2019-01-23T17:36:13.897Z,82.75
2019-01-23T17:38:48.915Z,64.77
2019-01-23T17:41:17.917Z,61.40
2019-01-23T17:43:53.325Z,67.05
2019-01-23T17:46:22.283Z,64.43
2019-01-23T17:49:00.799Z,78.43
2019-01-23T17:51:29.717Z,79.27
2019-01-23T17:54:20.091Z,69.17
2019-01-23T17:56:55.155Z,72.78
2019-01-23T18:02:41.134Z,69.03
2019-01-23T18:05:12.111Z,66.17
2019-01-23T18:07:41.033Z,71.30
2019-01-23T18:10:10.152Z,67.83
2019-01-23T18:12:39.412Z,76.00
2019-01-23T18:15:17.783Z,62.38
2019-01-23T18:17:49.144Z,69.25
2019-01-23T18:20:19.094Z,73.85
2019-01-23T18:22:48.300Z,87.42
2019-01-23T18:25:18.238Z,105.22
2019-01-23T18:27:49.227Z,82.00
2019-01-23T18:30:20.181Z,62.08
2019-01-23T18:32:49.678Z,76.50
2019-01-23T18:35:43.769Z,74.83
2019-01-23T18:38:31.752Z,70.15
2019-01-23T18:44:31.980Z,63.52
2019-01-23T18:47:07.615Z,69.15
2019-01-23T18:49:52.629Z,73.47
2019-01-23T18:52:23.587Z,65.10
2019-01-23T18:54:53.298Z,92.30
2019-01-23T18:57:29.800Z,78.75
2019-01-23T18:59:59.545Z,75.70
2019-01-23T19:02:28.580Z,70.75
2019-01-23T19:05:04.451Z,201.27
2019-01-23T19:07:33.712Z,64.72
2019-01-23T19:10:02.625Z,63.35
2019-01-23T19:12:59.251Z,66.90
2019-01-23T19:15:28.555Z,68.70
2019-01-23T19:17:58.260Z,75.45
2019-01-23T19:20:27.554Z,66.87
2019-01-23T19:22:56.947Z,68.00
2019-01-23T19:25:26.573Z,72.65
2019-01-23T19:27:55.543Z,67.17
2019-01-23T19:30:28.567Z,56.65
2019-01-23T19:33:05.448Z,67.32
2019-01-23T19:35:34.394Z,61.97
2019-01-23T19:38:03.344Z,74.67
2019-01-23T19:40:43.625Z,133.43
2019-01-23T19:43:12.890Z,106.23
2019-01-23T19:45:41.904Z,65.65
2019-01-23T19:48:10.840Z,69.42
2019-01-23T19:51:11.073Z,81.50
2019-01-23T19:53:55.530Z,64.97
2019-01-23T19:56:27.657Z,66.30
2019-01-23T19:58:56.591Z,59.50
2019-01-23T20:01:25.898Z,60.65
2019-01-23T20:04:34.278Z,55.43
2019-01-23T20:07:17.159Z,57.33
2019-01-23T20:09:46.595Z,51.55
2019-01-23T20:12:41.970Z,57.38
2019-01-23T20:15:12.447Z,54.88
2019-01-23T20:17:41.455Z,51.23
2019-01-23T20:20:11.215Z,57.17
2019-01-23T20:22:40.139Z,55.95
2019-01-23T20:25:10.734Z,51.77
2019-01-23T20:27:39.640Z,70.83
2019-01-23T20:30:29.577Z,63.83
2019-01-23T20:33:20.239Z,67.72
2019-01-23T20:35:50.237Z,81.08
2019-01-23T20:38:19.311Z,82.92
2019-01-23T20:40:48.307Z,82.62
2019-01-23T20:43:17.229Z,78.47
2019-01-23T20:45:46.164Z,81.00
2019-01-23T20:48:15.132Z,84.47
2019-01-23T20:50:44.139Z,78.65
2019-01-23T20:53:13.093Z,79.42
2019-01-23T20:55:42.797Z,80.70
2019-01-23T20:58:12.451Z,74.20
2019-01-23T21:00:41.436Z,82.90
2019-01-23T21:03:10.385Z,75.80
2019-01-23T21:05:39.362Z,89.67
2019-01-23T21:08:08.417Z,81.95
2019-01-23T21:10:37.781Z,97.37
2019-01-23T21:13:06.746Z,81.87
2019-01-23T21:15:36.024Z,77.75
2019-01-23T21:18:06.094Z,86.55
2019-01-23T21:20:36.679Z,79.87
2019-01-23T21:23:06.175Z,78.12
2019-01-23T21:25:35.557Z,80.62
2019-01-23T21:28:04.630Z,77.30
2019-01-23T21:30:33.863Z,82.33
2019-01-23T21:33:02.795Z,79.17
2019-01-23T21:35:31.770Z,73.75
2019-01-23T21:38:01.362Z,77.95
2019-01-23T21:40:32.306Z,84.85
2019-01-23T21:43:02.787Z,72.00
2019-01-23T21:45:33.334Z,79.70
2019-01-23T21:48:02.348Z,77.00
2019-01-23T21:50:31.696Z,76.55
2019-01-23T21:53:32.716Z,78.75
2019-01-23T21:56:01.674Z,84.80
2019-01-23T21:58:31.021Z,78.52
2019-01-23T22:01:02.166Z,67.50
2019-01-23T22:03:31.150Z,79.03
2019-01-23T22:06:00.077Z,83.65
2019-01-23T22:08:29.039Z,78.90
2019-01-23T22:10:58.441Z,81.53
2019-01-23T22:13:29.793Z,75.47
2019-01-23T22:16:17.192Z,69.67
2019-01-23T22:19:21.576Z,73.87
2019-01-23T22:22:00.795Z,68.42
2019-01-23T22:24:30.207Z,76.42
2019-01-23T22:26:59.949Z,77.67
2019-01-23T22:29:28.906Z,75.17
2019-01-23T22:31:58.176Z,77.82
2019-01-23T22:34:27.439Z,77.60
2019-01-23T22:36:57.097Z,76.62
2019-01-23T22:39:26.084Z,74.97
2019-01-23T22:41:55.042Z,73.62
2019-01-23T22:44:24.324Z,79.60
2019-01-23T22:46:53.288Z,76.77
2019-01-23T22:49:22.736Z,68.52
2019-01-23T22:52:15.540Z,68.28
2019-01-23T22:54:44.815Z,78.92
2019-01-23T22:57:13.760Z,76.00
2019-01-23T23:00:08.627Z,86.15
2019-01-23T23:02:37.591Z,70.22
2019-01-23T23:05:07.075Z,75.70
2019-01-23T23:07:36.089Z,81.25
2019-01-23T23:10:17.753Z,81.55
2019-01-23T23:13:05.690Z,81.02
2019-01-23T23:15:34.609Z,82.33
2019-01-23T23:18:03.546Z,77.47
2019-01-23T23:20:50.869Z,78.52
2019-01-23T23:23:19.771Z,76.28
2019-01-23T23:25:49.410Z,90.95
2019-01-23T23:28:18.391Z,78.20
2019-01-23T23:30:47.762Z,88.65
2019-01-23T23:33:16.716Z,76.57
2019-01-23T23:35:45.659Z,82.57
2019-01-23T23:38:14.610Z,77.45
2019-01-23T23:40:43.568Z,70.85
2019-01-23T23:43:49.312Z,72.20
2019-01-23T23:46:18.236Z,77.30
2019-01-23T23:48:47.525Z,85.20
2019-01-23T23:51:16.869Z,76.90
2019-01-23T23:53:45.888Z,74.55
2019-01-23T23:56:16.013Z,83.15
2019-01-23T23:58:44.932Z,93.62
